Wetterdaten: Woche 04.08.25 - 10.08.25 (KW32)
Datum Zeit Temp. I. Temp. A. Feuchte I. Feuchte A. Luftdruck Regen Wind Richtung Sonnenschein Solar Taupunkt Windchill Windböen
04.08.2025 00:00 22,1 °C 14,9 °C 61 % 87 % 1017,1 hPa 0,0 l/m² 3,3 km/h (1 Bft) SO 0,00 h 0 W/m² 12,8 °C 14,9 °C 5,7 km/h (2 Bft)
04.08.2025 01:00 22,1 °C 14,5 °C 61 % 87 % 1016,7 hPa 0,0 l/m² 4,3 km/h (1 Bft) S-SO 0,00 h 0 W/m² 12,4 °C 14,5 °C 7,0 km/h (2 Bft)
04.08.2025 02:00 22,0 °C 14,8 °C 61 % 87 % 1016,5 hPa 0,0 l/m² 6,1 km/h (2 Bft) S-SW 0,00 h 0 W/m² 12,6 °C 14,4 °C 9,1 km/h (2 Bft)
04.08.2025 03:00 22,0 °C 15,1 °C 60 % 85 % 1016,2 hPa 0,0 l/m² 7,6 km/h (2 Bft) S-SW 0,00 h 0 W/m² 12,5 °C 14,2 °C 11,2 km/h (2 Bft)
04.08.2025 04:00 21,9 °C 15,1 °C 60 % 86 % 1016,1 hPa 0,2 l/m² 8,1 km/h (2 Bft) SW 0,00 h 0 W/m² 12,7 °C 14,1 °C 11,6 km/h (2 Bft)
04.08.2025 05:00 21,9 °C 14,6 °C 61 % 89 % 1015,9 hPa 0,2 l/m² 9,6 km/h (2 Bft) SW 0,00 h 6 W/m² 12,9 °C 13,0 °C 13,4 km/h (3 Bft)
04.08.2025 06:00 21,9 °C 14,6 °C 61 % 91 % 1015,8 hPa 0,2 l/m² 8,3 km/h (2 Bft) S-SW 0,00 h 8 W/m² 13,2 °C 13,5 °C 11,3 km/h (2 Bft)
04.08.2025 07:00 21,9 °C 14,9 °C 61 % 92 % 1016,1 hPa 0,0 l/m² 13,6 km/h (3 Bft) S-SW 0,22 h 37 W/m² 13,6 °C 11,7 °C 18,5 km/h (3 Bft)
04.08.2025 08:00 21,8 °C 16,2 °C 61 % 92 % 1016,2 hPa 0,0 l/m² 16,5 km/h (3 Bft) SW 1,00 h 307 W/m² 14,8 °C 12,3 °C 22,0 km/h (4 Bft)
04.08.2025 09:00 21,8 °C 18,5 °C 61 % 83 % 1016,3 hPa 0,0 l/m² 18,2 km/h (3 Bft) SW 1,00 h 398 W/m² 15,6 °C 14,8 °C 24,7 km/h (4 Bft)
04.08.2025 10:00 21,9 °C 19,6 °C 61 % 78 % 1016,5 hPa 0,0 l/m² 19,4 km/h (3 Bft) SW 1,00 h 291 W/m² 15,6 °C 15,9 °C 26,0 km/h (4 Bft)
04.08.2025 11:00 21,9 °C 20,5 °C 61 % 73 % 1016,5 hPa 0,0 l/m² 17,9 km/h (3 Bft) SW 1,00 h 301 W/m² 15,6 °C 17,4 °C 25,0 km/h (4 Bft)
04.08.2025 12:00 21,9 °C 21,4 °C 61 % 67 % 1016,4 hPa 0,0 l/m² 13,1 km/h (3 Bft) W-SW 1,00 h 285 W/m² 15,0 °C 19,5 °C 20,9 km/h (4 Bft)
04.08.2025 13:00 22,1 °C 24,8 °C 60 % 55 % 1016,1 hPa 0,0 l/m² 16,4 km/h (3 Bft) W-SW 1,00 h 829 W/m² 15,0 °C 22,8 °C 24,7 km/h (4 Bft)
04.08.2025 14:00 22,1 °C 26,9 °C 60 % 45 % 1015,8 hPa 0,0 l/m² 14,6 km/h (3 Bft) W-SW 1,00 h 744 W/m² 13,8 °C 25,6 °C 21,0 km/h (4 Bft)
04.08.2025 15:00 22,1 °C 27,1 °C 60 % 46 % 1015,7 hPa 0,0 l/m² 15,6 km/h (3 Bft) SW 1,00 h 587 W/m² 14,3 °C 25,8 °C 22,0 km/h (4 Bft)
04.08.2025 16:00 22,2 °C 27,9 °C 60 % 42 % 1015,5 hPa 0,0 l/m² 15,3 km/h (3 Bft) SW 1,00 h 574 W/m² 13,8 °C 26,8 °C 21,7 km/h (4 Bft)
04.08.2025 17:00 22,2 °C 27,4 °C 59 % 43 % 1015,4 hPa 0,0 l/m² 17,1 km/h (3 Bft) SW 1,00 h 374 W/m² 13,8 °C 26,0 °C 23,0 km/h (4 Bft)
04.08.2025 18:00 22,3 °C 26,0 °C 57 % 48 % 1015,5 hPa 0,0 l/m² 14,2 km/h (3 Bft) SW 1,00 h 118 W/m² 14,3 °C 24,7 °C 19,7 km/h (3 Bft)
04.08.2025 19:00 22,2 °C 24,4 °C 58 % 55 % 1015,5 hPa 0,0 l/m² 11,2 km/h (2 Bft) SW 0,70 h 60 W/m² 14,6 °C 23,2 °C 15,1 km/h (3 Bft)
04.08.2025 20:00 22,2 °C 23,2 °C 59 % 59 % 1015,6 hPa 0,0 l/m² 9,3 km/h (2 Bft) S-SW 0,00 h 18 W/m² 14,8 °C 22,4 °C 12,4 km/h (2 Bft)
04.08.2025 21:00 22,3 °C 22,3 °C 60 % 64 % 1015,8 hPa 0,0 l/m² 10,0 km/h (2 Bft) S-SW 0,00 h 0 W/m² 15,1 °C 21,2 °C 13,5 km/h (3 Bft)
04.08.2025 22:00 22,3 °C 21,6 °C 60 % 68 % 1015,9 hPa 0,0 l/m² 10,6 km/h (2 Bft) S-SW 0,00 h 0 W/m² 15,4 °C 20,3 °C 13,9 km/h (3 Bft)
04.08.2025 23:00 22,2 °C 21,3 °C 60 % 69 % 1015,6 hPa 0,0 l/m² 10,0 km/h (2 Bft) S 0,00 h 0 W/m² 15,2 °C 20,1 °C 13,4 km/h (3 Bft)
05.08.2025 00:00 22,2 °C 20,5 °C 60 % 72 % 1015,2 hPa 0,0 l/m² 8,1 km/h (2 Bft) S 0,00 h 0 W/m² 15,3 °C 19,9 °C 11,8 km/h (2 Bft)
05.08.2025 01:00 22,2 °C 20,2 °C 60 % 76 % 1014,7 hPa 0,0 l/m² 9,8 km/h (2 Bft) S-SO 0,00 h 0 W/m² 15,8 °C 18,9 °C 14,4 km/h (3 Bft)
05.08.2025 02:00 22,2 °C 20,2 °C 60 % 78 % 1014,3 hPa 0,0 l/m² 7,0 km/h (2 Bft) S-SO 0,00 h 0 W/m² 16,2 °C 19,9 °C 10,4 km/h (2 Bft)
05.08.2025 03:00 22,2 °C 19,6 °C 60 % 82 % 1014,0 hPa 0,2 l/m² 5,0 km/h (1 Bft) S-SO 0,00 h 0 W/m² 16,5 °C 19,6 °C 7,5 km/h (2 Bft)
05.08.2025 04:00 22,2 °C 18,8 °C 60 % 87 % 1013,7 hPa 0,0 l/m² 6,0 km/h (2 Bft) S 0,00 h 0 W/m² 16,6 °C 18,6 °C 8,3 km/h (2 Bft)
05.08.2025 05:00 22,2 °C 18,5 °C 61 % 88 % 1013,5 hPa 0,0 l/m² 6,3 km/h (2 Bft) S 0,00 h 0 W/m² 16,5 °C 18,3 °C 9,0 km/h (2 Bft)
05.08.2025 06:00 22,2 °C 18,6 °C 61 % 88 % 1013,3 hPa 0,2 l/m² 8,1 km/h (2 Bft) S 0,00 h 10 W/m² 16,7 °C 17,8 °C 10,9 km/h (2 Bft)
05.08.2025 07:00 22,2 °C 18,7 °C 62 % 89 % 1013,7 hPa 0,0 l/m² 3,6 km/h (1 Bft) S-SW 0,00 h 22 W/m² 16,9 °C 18,6 °C 6,6 km/h (2 Bft)
05.08.2025 08:00 22,2 °C 17,9 °C 62 % 87 % 1014,5 hPa 0,0 l/m² 4,2 km/h (1 Bft) W 0,02 h 28 W/m² 15,8 °C 17,8 °C 8,7 km/h (2 Bft)
05.08.2025 09:00 22,2 °C 17,2 °C 62 % 88 % 1014,8 hPa 0,6 l/m² 3,7 km/h (1 Bft) W 0,12 h 34 W/m² 15,2 °C 17,2 °C 8,2 km/h (2 Bft)
05.08.2025 10:00 22,2 °C 16,4 °C 62 % 89 % 1015,5 hPa 2,0 l/m² 6,4 km/h (2 Bft) W 0,85 h 63 W/m² 14,5 °C 16,0 °C 13,3 km/h (3 Bft)
05.08.2025 11:00 22,2 °C 15,1 °C 62 % 89 % 1016,1 hPa 2,2 l/m² 5,1 km/h (1 Bft) W-NW 0,80 h 70 W/m² 13,4 °C 14,9 °C 11,1 km/h (2 Bft)
05.08.2025 12:00 22,2 °C 14,3 °C 62 % 90 % 1016,1 hPa 1,4 l/m² 2,3 km/h (1 Bft) W 0,98 h 111 W/m² 12,7 °C 14,3 °C 4,7 km/h (1 Bft)
05.08.2025 13:00 22,2 °C 14,8 °C 61 % 91 % 1016,5 hPa 1,2 l/m² 5,3 km/h (1 Bft) S-SW 1,00 h 165 W/m² 13,4 °C 14,6 °C 7,8 km/h (2 Bft)
05.08.2025 14:00 22,1 °C 15,5 °C 61 % 91 % 1016,7 hPa 0,4 l/m² 5,0 km/h (1 Bft) S-SW 1,02 h 167 W/m² 14,0 °C 15,3 °C 7,0 km/h (2 Bft)
05.08.2025 15:00 21,9 °C 17,6 °C 61 % 91 % 1017,0 hPa 0,0 l/m² 10,3 km/h (2 Bft) SW 1,00 h 505 W/m² 16,1 °C 16,0 °C 14,4 km/h (3 Bft)
05.08.2025 16:00 21,9 °C 20,9 °C 61 % 76 % 1016,8 hPa 0,0 l/m² 10,8 km/h (2 Bft) SW 1,00 h 594 W/m² 16,4 °C 19,5 °C 15,2 km/h (3 Bft)
05.08.2025 17:00 21,9 °C 21,5 °C 60 % 68 % 1016,7 hPa 0,0 l/m² 11,8 km/h (2 Bft) SW 1,00 h 351 W/m² 15,5 °C 19,9 °C 15,9 km/h (3 Bft)
05.08.2025 18:00 22,0 °C 20,5 °C 61 % 72 % 1017,1 hPa 0,0 l/m² 6,6 km/h (2 Bft) S-SW 1,00 h 94 W/m² 15,2 °C 20,3 °C 8,9 km/h (2 Bft)
05.08.2025 19:00 22,1 °C 20,1 °C 62 % 74 % 1017,4 hPa 0,0 l/m² 4,8 km/h (1 Bft) SW 0,28 h 47 W/m² 15,3 °C 20,0 °C 6,9 km/h (2 Bft)
05.08.2025 20:00 22,1 °C 19,1 °C 62 % 69 % 1018,0 hPa 0,0 l/m² 5,4 km/h (1 Bft) W-SW 0,00 h 19 W/m² 13,3 °C 19,0 °C 8,6 km/h (2 Bft)
05.08.2025 21:00 22,0 °C 16,8 °C 59 % 71 % 1019,0 hPa 0,0 l/m² 2,9 km/h (1 Bft) W-SW 0,00 h 0 W/m² 11,5 °C 16,8 °C 4,9 km/h (1 Bft)
05.08.2025 22:00 22,1 °C 15,0 °C 60 % 76 % 1019,7 hPa 0,0 l/m² 5,1 km/h (1 Bft) W-SW 0,00 h 0 W/m² 10,9 °C 14,9 °C 9,1 km/h (2 Bft)
05.08.2025 23:00 21,9 °C 14,9 °C 60 % 77 % 1020,9 hPa 0,0 l/m² 5,4 km/h (2 Bft) W 0,00 h 0 W/m² 10,8 °C 14,7 °C 11,7 km/h (2 Bft)
06.08.2025 00:00 21,9 °C 15,0 °C 60 % 75 % 1021,5 hPa 0,0 l/m² 3,0 km/h (1 Bft) W-SW 0,00 h 0 W/m² 10,6 °C 15,0 °C 6,7 km/h (2 Bft)
06.08.2025 01:00 21,9 °C 13,3 °C 60 % 78 % 1022,0 hPa 0,0 l/m² 1,9 km/h (1 Bft) W-SW 0,00 h 0 W/m² 9,6 °C 13,3 °C 3,8 km/h (1 Bft)
06.08.2025 02:00 21,8 °C 11,9 °C 60 % 81 % 1022,2 hPa 0,0 l/m² 1,6 km/h (1 Bft) W-SW 0,00 h 0 W/m² 8,7 °C 11,9 °C 3,2 km/h (1 Bft)
06.08.2025 03:00 21,8 °C 10,9 °C 60 % 83 % 1022,4 hPa 0,0 l/m² 1,8 km/h (1 Bft) W-SW 0,00 h 0 W/m² 8,0 °C 10,9 °C 3,2 km/h (1 Bft)
06.08.2025 04:00 21,8 °C 10,5 °C 60 % 85 % 1022,7 hPa 0,0 l/m² 1,0 km/h (0 Bft) W-SW 0,00 h 0 W/m² 8,2 °C 10,5 °C 2,2 km/h (1 Bft)
06.08.2025 05:00 21,8 °C 10,1 °C 60 % 87 % 1023,2 hPa 0,0 l/m² 2,1 km/h (1 Bft) W-SW 0,00 h 8 W/m² 8,0 °C 10,1 °C 3,6 km/h (1 Bft)
06.08.2025 06:00 21,7 °C 10,2 °C 60 % 89 % 1023,5 hPa 0,0 l/m² 1,6 km/h (1 Bft) S-SO 0,03 h 32 W/m² 8,5 °C 10,2 °C 3,1 km/h (1 Bft)
06.08.2025 07:00 21,7 °C 11,9 °C 60 % 90 % 1023,7 hPa 0,0 l/m² 6,0 km/h (2 Bft) SW 0,93 h 144 W/m² 10,4 °C 10,9 °C 8,9 km/h (2 Bft)
06.08.2025 08:00 21,6 °C 15,6 °C 60 % 79 % 1023,7 hPa 0,0 l/m² 15,0 km/h (3 Bft) SW 1,00 h 317 W/m² 12,0 °C 12,0 °C 22,0 km/h (4 Bft)
06.08.2025 09:00 21,7 °C 18,4 °C 60 % 69 % 1023,9 hPa 0,0 l/m² 14,8 km/h (3 Bft) SW 1,00 h 535 W/m² 12,5 °C 15,4 °C 21,1 km/h (4 Bft)
06.08.2025 10:00 21,8 °C 20,4 °C 60 % 62 % 1024,0 hPa 0,0 l/m² 14,7 km/h (3 Bft) W-SW 1,00 h 641 W/m² 12,8 °C 17,9 °C 21,4 km/h (4 Bft)
06.08.2025 11:00 21,7 °C 21,8 °C 60 % 57 % 1023,9 hPa 0,0 l/m² 12,9 km/h (3 Bft) SW 1,00 h 624 W/m² 12,9 °C 20,0 °C 18,6 km/h (3 Bft)
06.08.2025 12:00 21,7 °C 22,2 °C 59 % 54 % 1023,7 hPa 0,0 l/m² 12,4 km/h (2 Bft) W-SW 1,00 h 600 W/m² 12,5 °C 20,6 °C 19,5 km/h (3 Bft)
06.08.2025 13:00 21,8 °C 22,8 °C 59 % 52 % 1023,5 hPa 0,0 l/m² 10,2 km/h (2 Bft) W 1,00 h 537 W/m² 12,3 °C 21,8 °C 16,1 km/h (3 Bft)
06.08.2025 14:00 21,8 °C 23,1 °C 59 % 48 % 1023,3 hPa 0,0 l/m² 10,1 km/h (2 Bft) W-SW 1,00 h 331 W/m² 11,6 °C 22,1 °C 16,2 km/h (3 Bft)
06.08.2025 15:00 21,8 °C 23,4 °C 59 % 46 % 1023,0 hPa 0,0 l/m² 8,3 km/h (2 Bft) W-SW 1,00 h 403 W/m² 11,1 °C 22,6 °C 13,3 km/h (3 Bft)
06.08.2025 16:00 21,8 °C 24,0 °C 57 % 44 % 1022,6 hPa 0,0 l/m² 8,8 km/h (2 Bft) W 1,00 h 475 W/m² 10,9 °C 23,4 °C 14,3 km/h (3 Bft)
06.08.2025 17:00 21,8 °C 24,5 °C 55 % 44 % 1022,1 hPa 0,0 l/m² 5,4 km/h (2 Bft) W-NW 1,00 h 345 W/m² 11,4 °C 24,4 °C 9,4 km/h (2 Bft)
06.08.2025 18:00 21,8 °C 23,6 °C 55 % 46 % 1021,8 hPa 0,0 l/m² 2,7 km/h (1 Bft) N 1,00 h 135 W/m² 11,3 °C 23,6 °C 4,8 km/h (1 Bft)
06.08.2025 19:00 21,8 °C 22,5 °C 56 % 47 % 1021,6 hPa 0,0 l/m² 5,0 km/h (1 Bft) W-SW 0,40 h 52 W/m² 10,8 °C 22,3 °C 7,5 km/h (2 Bft)
06.08.2025 20:00 21,8 °C 20,6 °C 56 % 55 % 1021,6 hPa 0,0 l/m² 1,3 km/h (1 Bft) W-SW 0,00 h 17 W/m² 11,2 °C 20,6 °C 2,3 km/h (1 Bft)
06.08.2025 21:00 21,8 °C 17,6 °C 56 % 69 % 1022,0 hPa 0,0 l/m² 0,2 km/h (0 Bft) W-SW 0,00 h 0 W/m² 11,8 °C 17,6 °C 0,4 km/h (0 Bft)
06.08.2025 22:00 21,9 °C 14,9 °C 57 % 76 % 1022,1 hPa 0,0 l/m² 0,0 km/h (0 Bft) W-SW 0,00 h 0 W/m² 10,7 °C 14,9 °C 0,0 km/h (0 Bft)
06.08.2025 23:00 21,8 °C 13,1 °C 58 % 80 % 1022,2 hPa 0,0 l/m² 0,0 km/h (0 Bft) W-SW 0,00 h 0 W/m² 9,8 °C 13,1 °C 0,0 km/h (0 Bft)
07.08.2025 00:00 21,8 °C 11,8 °C 58 % 82 % 1021,9 hPa 0,0 l/m² 0,2 km/h (0 Bft) W-SW 0,00 h 0 W/m² 8,8 °C 11,8 °C 0,5 km/h (0 Bft)
07.08.2025 01:00 21,8 °C 10,9 °C 58 % 84 % 1021,8 hPa 0,0 l/m² 0,1 km/h (0 Bft) W-SW 0,00 h 0 W/m² 8,3 °C 10,9 °C 0,3 km/h (0 Bft)
07.08.2025 02:00 21,8 °C 10,3 °C 58 % 85 % 1021,7 hPa 0,0 l/m² 0,1 km/h (0 Bft) W-SW 0,00 h 0 W/m² 7,9 °C 10,3 °C 0,4 km/h (0 Bft)
07.08.2025 03:00 21,8 °C 9,9 °C 58 % 86 % 1021,3 hPa 0,0 l/m² 0,1 km/h (0 Bft) W-SW 0,00 h 0 W/m² 7,7 °C 9,9 °C 0,2 km/h (0 Bft)
07.08.2025 04:00 21,7 °C 9,6 °C 58 % 87 % 1021,0 hPa 0,0 l/m² 0,0 km/h (0 Bft) W-SW 0,00 h 0 W/m² 7,5 °C 9,6 °C 0,1 km/h (0 Bft)
07.08.2025 05:00 21,7 °C 9,4 °C 59 % 88 % 1020,6 hPa 0,0 l/m² 0,0 km/h (0 Bft) W-SW 0,00 h 6 W/m² 7,5 °C 9,4 °C 0,0 km/h (0 Bft)
07.08.2025 06:00 21,7 °C 9,7 °C 59 % 90 % 1020,4 hPa 0,0 l/m² 1,1 km/h (1 Bft) W-SW 0,18 h 36 W/m² 8,1 °C 9,7 °C 2,1 km/h (1 Bft)
07.08.2025 07:00 21,6 °C 11,1 °C 59 % 92 % 1020,3 hPa 0,0 l/m² 0,5 km/h (0 Bft) S-SO 1,00 h 99 W/m² 9,9 °C 11,1 °C 0,9 km/h (0 Bft)
07.08.2025 08:00 21,6 °C 13,2 °C 59 % 93 % 1020,4 hPa 0,0 l/m² 0,3 km/h (0 Bft) S-SO 1,00 h 288 W/m² 12,1 °C 13,2 °C 1,1 km/h (1 Bft)
07.08.2025 09:00 21,6 °C 17,7 °C 59 % 80 % 1020,1 hPa 0,0 l/m² 2,3 km/h (1 Bft) S-SO 1,00 h 435 W/m² 14,1 °C 17,7 °C 4,4 km/h (1 Bft)
07.08.2025 10:00 21,6 °C 22,0 °C 59 % 61 % 1019,8 hPa 0,0 l/m² 4,5 km/h (1 Bft) S-SO 1,00 h 567 W/m² 14,1 °C 21,9 °C 7,4 km/h (2 Bft)
07.08.2025 11:00 21,7 °C 24,9 °C 59 % 50 % 1018,9 hPa 0,0 l/m² 9,4 km/h (2 Bft) S-SW 1,00 h 685 W/m² 13,8 °C 24,2 °C 14,0 km/h (3 Bft)
07.08.2025 12:00 21,7 °C 26,0 °C 59 % 42 % 1018,5 hPa 0,0 l/m² 11,7 km/h (2 Bft) S-SW 0,98 h 657 W/m² 12,0 °C 25,0 °C 16,7 km/h (3 Bft)
07.08.2025 13:00 21,8 °C 27,5 °C 59 % 38 % 1018,0 hPa 0,0 l/m² 10,1 km/h (2 Bft) S-SW 1,02 h 841 W/m² 11,8 °C 26,9 °C 14,6 km/h (3 Bft)
07.08.2025 14:00 21,8 °C 28,8 °C 59 % 36 % 1017,5 hPa 0,0 l/m² 9,7 km/h (2 Bft) S-SW 1,00 h 820 W/m² 12,1 °C 28,4 °C 14,0 km/h (3 Bft)
07.08.2025 15:00 21,9 °C 29,7 °C 54 % 35 % 1017,0 hPa 0,0 l/m² 8,2 km/h (2 Bft) S 1,00 h 747 W/m² 12,6 °C 29,5 °C 12,4 km/h (2 Bft)
07.08.2025 16:00 22,0 °C 30,2 °C 51 % 34 % 1016,5 hPa 0,0 l/m² 7,3 km/h (2 Bft) SW 1,00 h 591 W/m² 12,4 °C 30,0 °C 11,3 km/h (2 Bft)
07.08.2025 17:00 22,2 °C 29,1 °C 50 % 33 % 1016,1 hPa 0,0 l/m² 8,2 km/h (2 Bft) SW 1,00 h 331 W/m² 11,2 °C 28,9 °C 11,5 km/h (2 Bft)
07.08.2025 18:00 22,3 °C 28,0 °C 50 % 34 % 1015,8 hPa 0,0 l/m² 6,5 km/h (2 Bft) S-SW 1,00 h 99 W/m² 10,8 °C 27,9 °C 9,0 km/h (2 Bft)
07.08.2025 19:00 22,3 °C 26,7 °C 52 % 39 % 1015,8 hPa 0,0 l/m² 4,4 km/h (1 Bft) SW 0,75 h 57 W/m² 11,5 °C 26,6 °C 6,1 km/h (2 Bft)
07.08.2025 20:00 22,3 °C 24,2 °C 54 % 51 % 1016,1 hPa 0,0 l/m² 1,0 km/h (0 Bft) W-SW 0,00 h 16 W/m² 13,4 °C 24,2 °C 1,8 km/h (1 Bft)
07.08.2025 21:00 22,3 °C 20,3 °C 56 % 65 % 1016,3 hPa 0,0 l/m² 0,0 km/h (0 Bft) W-SW 0,00 h 0 W/m² 13,6 °C 20,3 °C 0,0 km/h (0 Bft)
07.08.2025 22:00 22,3 °C 17,8 °C 56 % 74 % 1016,3 hPa 0,0 l/m² 0,0 km/h (0 Bft) W-SW 0,00 h 0 W/m² 13,1 °C 17,8 °C 0,0 km/h (0 Bft)
07.08.2025 23:00 22,2 °C 16,5 °C 57 % 79 % 1016,1 hPa 0,0 l/m² 0,0 km/h (0 Bft) W-SW 0,00 h 0 W/m² 12,8 °C 16,5 °C 0,0 km/h (0 Bft)
08.08.2025 00:00 22,1 °C 16,1 °C 57 % 83 % 1016,2 hPa 0,0 l/m² 0,0 km/h (0 Bft) W-SW 0,00 h 0 W/m² 13,2 °C 16,1 °C 0,0 km/h (0 Bft)
08.08.2025 01:00 22,1 °C 16,1 °C 57 % 83 % 1016,1 hPa 0,0 l/m² 0,0 km/h (0 Bft) W-SW 0,00 h 0 W/m² 13,2 °C 16,1 °C 0,0 km/h (0 Bft)
08.08.2025 02:00 22,1 °C 16,1 °C 58 % 83 % 1016,1 hPa 0,0 l/m² 0,5 km/h (0 Bft) W-SW 0,00 h 0 W/m² 13,2 °C 16,1 °C 1,3 km/h (1 Bft)
08.08.2025 03:00 22,0 °C 16,2 °C 58 % 85 % 1016,1 hPa 0,0 l/m² 0,8 km/h (0 Bft) SW 0,00 h 0 W/m² 13,6 °C 16,2 °C 1,3 km/h (1 Bft)
08.08.2025 04:00 22,0 °C 16,3 °C 58 % 87 % 1015,9 hPa 0,0 l/m² 0,5 km/h (0 Bft) SW 0,00 h 0 W/m² 14,1 °C 16,3 °C 0,8 km/h (0 Bft)
08.08.2025 05:00 22,0 °C 16,2 °C 59 % 87 % 1016,2 hPa 0,0 l/m² 0,1 km/h (0 Bft) SW 0,00 h 5 W/m² 14,1 °C 16,2 °C 0,3 km/h (0 Bft)
08.08.2025 06:00 22,0 °C 15,8 °C 59 % 87 % 1016,6 hPa 0,0 l/m² 0,0 km/h (0 Bft) SW 0,15 h 28 W/m² 13,7 °C 15,8 °C 0,0 km/h (0 Bft)
08.08.2025 07:00 22,1 °C 16,4 °C 59 % 88 % 1016,8 hPa 0,0 l/m² 2,1 km/h (1 Bft) SW 1,00 h 132 W/m² 14,4 °C 16,3 °C 3,3 km/h (1 Bft)
08.08.2025 08:00 22,0 °C 18,8 °C 59 % 79 % 1016,9 hPa 0,0 l/m² 1,4 km/h (1 Bft) S-SW 1,00 h 180 W/m² 15,0 °C 18,8 °C 2,8 km/h (1 Bft)
08.08.2025 09:00 22,0 °C 21,6 °C 59 % 66 % 1017,0 hPa 0,0 l/m² 7,4 km/h (2 Bft) SW 1,00 h 290 W/m² 15,0 °C 21,1 °C 10,7 km/h (2 Bft)
08.08.2025 10:00 22,0 °C 24,5 °C 59 % 54 % 1017,1 hPa 0,0 l/m² 11,5 km/h (2 Bft) S-SW 1,00 h 389 W/m² 14,6 °C 23,4 °C 15,2 km/h (3 Bft)
08.08.2025 11:00 22,1 °C 27,6 °C 59 % 42 % 1017,1 hPa 0,0 l/m² 15,5 km/h (3 Bft) SW 1,00 h 531 W/m² 13,5 °C 26,4 °C 21,1 km/h (4 Bft)
08.08.2025 12:00 22,2 °C 27,2 °C 59 % 43 % 1017,2 hPa 0,0 l/m² 16,5 km/h (3 Bft) SW 0,98 h 353 W/m² 13,6 °C 25,8 °C 22,9 km/h (4 Bft)
08.08.2025 13:00 22,2 °C 27,1 °C 59 % 45 % 1017,2 hPa 0,0 l/m² 18,0 km/h (3 Bft) SW 1,00 h 390 W/m² 14,0 °C 25,5 °C 24,6 km/h (4 Bft)
08.08.2025 14:00 22,2 °C 27,5 °C 59 % 43 % 1017,3 hPa 0,0 l/m² 16,7 km/h (3 Bft) S-SW 1,00 h 327 W/m² 13,7 °C 26,2 °C 23,4 km/h (4 Bft)
08.08.2025 15:00 22,2 °C 27,7 °C 59 % 43 % 1017,5 hPa 0,0 l/m² 16,1 km/h (3 Bft) SW 1,02 h 342 W/m² 14,0 °C 26,5 °C 22,7 km/h (4 Bft)
08.08.2025 16:00 22,3 °C 28,1 °C 59 % 43 % 1017,6 hPa 0,0 l/m² 16,8 km/h (3 Bft) SW 1,00 h 312 W/m² 14,2 °C 27,0 °C 23,0 km/h (4 Bft)
08.08.2025 17:00 22,4 °C 28,6 °C 59 % 41 % 1017,7 hPa 0,0 l/m² 15,6 km/h (3 Bft) SW 1,00 h 320 W/m² 13,8 °C 27,6 °C 21,9 km/h (4 Bft)
08.08.2025 18:00 22,4 °C 27,2 °C 59 % 44 % 1017,9 hPa 0,0 l/m² 14,3 km/h (3 Bft) SW 1,00 h 132 W/m² 14,1 °C 26,1 °C 20,1 km/h (4 Bft)
08.08.2025 19:00 22,3 °C 26,0 °C 58 % 48 % 1018,4 hPa 0,0 l/m² 10,2 km/h (2 Bft) W-SW 0,47 h 54 W/m² 14,2 °C 25,3 °C 14,9 km/h (3 Bft)
08.08.2025 20:00 22,6 °C 24,6 °C 60 % 54 % 1018,7 hPa 0,0 l/m² 3,1 km/h (1 Bft) N-NW 0,00 h 14 W/m² 14,7 °C 24,6 °C 5,0 km/h (1 Bft)
08.08.2025 21:00 22,7 °C 22,3 °C 59 % 60 % 1019,6 hPa 0,0 l/m² 1,8 km/h (1 Bft) NW 0,00 h 0 W/m² 14,0 °C 22,3 °C 3,1 km/h (1 Bft)
08.08.2025 22:00 22,7 °C 20,0 °C 60 % 68 % 1020,0 hPa 0,0 l/m² 0,8 km/h (0 Bft) W-SW 0,00 h 0 W/m² 13,9 °C 20,0 °C 1,4 km/h (1 Bft)
08.08.2025 23:00 22,5 °C 18,7 °C 60 % 75 % 1020,1 hPa 0,0 l/m² 0,3 km/h (0 Bft) W-SW 0,00 h 0 W/m² 14,0 °C 18,7 °C 0,6 km/h (0 Bft)
09.08.2025 00:00 22,4 °C 17,6 °C 60 % 78 % 1020,4 hPa 0,0 l/m² 0,0 km/h (0 Bft) W-SW 0,00 h 0 W/m² 13,7 °C 17,6 °C 0,0 km/h (0 Bft)
09.08.2025 01:00 22,4 °C 16,8 °C 60 % 82 % 1020,5 hPa 0,0 l/m² 0,6 km/h (0 Bft) W-SW 0,00 h 0 W/m² 13,7 °C 16,8 °C 1,0 km/h (0 Bft)
09.08.2025 02:00 22,4 °C 16,3 °C 60 % 85 % 1020,5 hPa 0,0 l/m² 0,0 km/h (0 Bft) W-SW 0,00 h 0 W/m² 13,8 °C 16,3 °C 0,0 km/h (0 Bft)
09.08.2025 03:00 22,4 °C 15,7 °C 60 % 84 % 1020,5 hPa 0,0 l/m² 0,3 km/h (0 Bft) W-SW 0,00 h 0 W/m² 13,0 °C 15,7 °C 0,5 km/h (0 Bft)
09.08.2025 04:00 22,3 °C 14,7 °C 60 % 85 % 1020,3 hPa 0,0 l/m² 0,1 km/h (0 Bft) W-SW 0,00 h 0 W/m² 12,1 °C 14,7 °C 0,3 km/h (0 Bft)
09.08.2025 05:00 22,3 °C 13,9 °C 60 % 86 % 1020,2 hPa 0,0 l/m² 0,1 km/h (0 Bft) W-SW 0,00 h 6 W/m² 11,5 °C 13,9 °C 0,4 km/h (0 Bft)
09.08.2025 06:00 22,3 °C 13,5 °C 60 % 87 % 1020,4 hPa 0,0 l/m² 0,2 km/h (0 Bft) W-SW 0,07 h 31 W/m² 11,4 °C 13,5 °C 0,6 km/h (0 Bft)
09.08.2025 07:00 22,3 °C 14,9 °C 60 % 91 % 1020,6 hPa 0,0 l/m² 0,3 km/h (0 Bft) W-SW 0,98 h 130 W/m² 13,4 °C 14,9 °C 0,6 km/h (0 Bft)
09.08.2025 08:00 22,3 °C 18,6 °C 60 % 87 % 1020,6 hPa 0,0 l/m² 0,2 km/h (0 Bft) W 1,00 h 286 W/m² 16,5 °C 18,6 °C 0,7 km/h (0 Bft)
09.08.2025 09:00 22,4 °C 23,0 °C 61 % 71 % 1020,2 hPa 0,0 l/m² 5,0 km/h (1 Bft) O 1,00 h 433 W/m² 17,4 °C 22,8 °C 7,5 km/h (2 Bft)
09.08.2025 10:00 22,4 °C 25,8 °C 61 % 61 % 1019,8 hPa 0,0 l/m² 6,9 km/h (2 Bft) O 0,98 h 525 W/m² 17,7 °C 25,5 °C 10,9 km/h (2 Bft)
09.08.2025 11:00 22,6 °C 28,1 °C 61 % 52 % 1019,4 hPa 0,0 l/m² 8,1 km/h (2 Bft) O 1,02 h 649 W/m² 17,3 °C 27,8 °C 12,3 km/h (2 Bft)
09.08.2025 12:00 22,8 °C 29,3 °C 60 % 45 % 1018,9 hPa 0,0 l/m² 10,1 km/h (2 Bft) SO 0,98 h 535 W/m² 16,1 °C 28,9 °C 14,9 km/h (3 Bft)
09.08.2025 13:00 22,7 °C 30,7 °C 61 % 42 % 1018,6 hPa 0,0 l/m² 9,3 km/h (2 Bft) SO 1,00 h 774 W/m² 16,4 °C 30,5 °C 14,5 km/h (3 Bft)
09.08.2025 14:00 22,6 °C 32,4 °C 61 % 38 % 1017,9 hPa 0,0 l/m² 8,3 km/h (2 Bft) S-SW 1,02 h 738 W/m² 16,4 °C 32,4 °C 13,4 km/h (3 Bft)
09.08.2025 15:00 22,6 °C 33,7 °C 61 % 35 % 1017,5 hPa 0,0 l/m² 11,0 km/h (2 Bft) S-SW 1,00 h 726 W/m² 15,9 °C 33,7 °C 15,7 km/h (3 Bft)
09.08.2025 16:00 22,6 °C 33,9 °C 62 % 34 % 1017,2 hPa 0,0 l/m² 11,6 km/h (2 Bft) SW 1,00 h 563 W/m² 15,8 °C 33,9 °C 16,4 km/h (3 Bft)
09.08.2025 17:00 22,6 °C 33,1 °C 62 % 36 % 1016,9 hPa 0,0 l/m² 13,1 km/h (3 Bft) SW 1,00 h 370 W/m² 15,8 °C 33,1 °C 18,3 km/h (3 Bft)
09.08.2025 18:00 22,7 °C 31,9 °C 62 % 38 % 1016,8 hPa 0,0 l/m² 12,6 km/h (3 Bft) W-SW 1,00 h 86 W/m² 15,8 °C 31,7 °C 18,5 km/h (3 Bft)
09.08.2025 19:00 22,7 °C 30,1 °C 62 % 44 % 1017,0 hPa 0,0 l/m² 6,3 km/h (2 Bft) W-SW 0,02 h 39 W/m² 16,5 °C 30,0 °C 11,2 km/h (2 Bft)
09.08.2025 20:00 22,7 °C 27,9 °C 62 % 48 % 1017,4 hPa 0,0 l/m² 3,3 km/h (1 Bft) NW 0,00 h 15 W/m² 15,8 °C 27,9 °C 5,5 km/h (2 Bft)
09.08.2025 21:00 22,7 °C 24,5 °C 62 % 57 % 1018,0 hPa 0,0 l/m² 0,3 km/h (0 Bft) W-NW 0,00 h 0 W/m² 15,3 °C 24,5 °C 0,7 km/h (0 Bft)
09.08.2025 22:00 22,7 °C 21,5 °C 62 % 69 % 1018,4 hPa 0,0 l/m² 1,2 km/h (1 Bft) W-NW 0,00 h 0 W/m² 15,5 °C 21,5 °C 2,2 km/h (1 Bft)
09.08.2025 23:00 22,7 °C 19,8 °C 62 % 72 % 1018,7 hPa 0,0 l/m² 0,7 km/h (0 Bft) NW 0,00 h 0 W/m² 14,6 °C 19,8 °C 1,8 km/h (1 Bft)
10.08.2025 00:00 22,7 °C 18,6 °C 62 % 75 % 1019,2 hPa 0,0 l/m² 0,6 km/h (0 Bft) NW 0,00 h 0 W/m² 14,1 °C 18,6 °C 0,8 km/h (0 Bft)
10.08.2025 01:00 22,8 °C 17,7 °C 62 % 78 % 1019,7 hPa 0,0 l/m² 1,0 km/h (0 Bft) SW 0,00 h 0 W/m² 13,7 °C 17,7 °C 2,0 km/h (1 Bft)
10.08.2025 02:00 22,8 °C 17,8 °C 62 % 81 % 1020,4 hPa 0,0 l/m² 6,9 km/h (2 Bft) W-NW 0,00 h 0 W/m² 14,5 °C 17,3 °C 14,9 km/h (3 Bft)
10.08.2025 03:00 22,8 °C 19,5 °C 61 % 75 % 1021,5 hPa 0,0 l/m² 9,0 km/h (2 Bft) W-NW 0,00 h 0 W/m² 15,0 °C 18,5 °C 17,8 km/h (3 Bft)
10.08.2025 04:00 22,8 °C 18,9 °C 61 % 77 % 1022,3 hPa 0,0 l/m² 9,4 km/h (2 Bft) W-NW 0,00 h 0 W/m² 14,8 °C 17,6 °C 17,0 km/h (3 Bft)
10.08.2025 05:00 22,8 °C 17,5 °C 61 % 80 % 1022,8 hPa 0,0 l/m² 3,2 km/h (1 Bft) W-NW 0,00 h 6 W/m² 14,0 °C 17,5 °C 6,4 km/h (2 Bft)
10.08.2025 06:00 22,8 °C 16,3 °C 61 % 83 % 1023,7 hPa 0,0 l/m² 3,3 km/h (1 Bft) W 0,08 h 29 W/m² 13,4 °C 16,2 °C 6,5 km/h (2 Bft)
10.08.2025 07:00 22,7 °C 16,7 °C 61 % 83 % 1024,5 hPa 0,0 l/m² 7,1 km/h (2 Bft) W-NW 0,97 h 135 W/m² 13,8 °C 16,2 °C 14,9 km/h (3 Bft)
10.08.2025 08:00 22,7 °C 18,9 °C 61 % 71 % 1025,3 hPa 0,0 l/m² 9,7 km/h (2 Bft) NW 1,00 h 312 W/m² 13,6 °C 17,6 °C 17,3 km/h (3 Bft)
10.08.2025 09:00 22,7 °C 20,8 °C 58 % 62 % 1025,8 hPa 0,0 l/m² 9,6 km/h (2 Bft) W-NW 1,00 h 512 W/m² 13,4 °C 19,7 °C 16,7 km/h (3 Bft)
10.08.2025 10:00 22,7 °C 22,9 °C 58 % 56 % 1026,1 hPa 0,0 l/m² 7,7 km/h (2 Bft) W-NW 1,00 h 648 W/m² 13,7 °C 22,3 °C 13,4 km/h (3 Bft)
10.08.2025 11:00 22,8 °C 24,5 °C 57 % 51 % 1026,3 hPa 0,0 l/m² 8,0 km/h (2 Bft) W 1,00 h 772 W/m² 13,7 °C 24,0 °C 14,3 km/h (3 Bft)
10.08.2025 12:00 22,8 °C 25,2 °C 56 % 47 % 1026,3 hPa 0,0 l/m² 11,2 km/h (2 Bft) N-NW 0,98 h 790 W/m² 13,2 °C 24,3 °C 18,9 km/h (3 Bft)
10.08.2025 13:00 22,9 °C 26,1 °C 56 % 45 % 1026,3 hPa 0,0 l/m² 8,7 km/h (2 Bft) W 1,02 h 753 W/m² 13,4 °C 25,6 °C 16,3 km/h (3 Bft)
10.08.2025 14:00 22,9 °C 27,3 °C 57 % 42 % 1026,3 hPa 0,0 l/m² 10,0 km/h (2 Bft) N-NW 1,00 h 826 W/m² 13,0 °C 26,7 °C 18,5 km/h (3 Bft)
10.08.2025 15:00 22,9 °C 27,8 °C 56 % 39 % 1026,2 hPa 0,0 l/m² 9,8 km/h (2 Bft) W-NW 1,00 h 692 W/m² 12,7 °C 27,3 °C 17,4 km/h (3 Bft)
10.08.2025 16:00 23,1 °C 27,9 °C 55 % 40 % 1026,2 hPa 0,0 l/m² 9,5 km/h (2 Bft) W-NW 1,00 h 606 W/m² 12,8 °C 27,4 °C 16,7 km/h (3 Bft)
10.08.2025 17:00 23,1 °C 27,2 °C 55 % 41 % 1026,1 hPa 0,0 l/m² 8,3 km/h (2 Bft) W-NW 1,00 h 399 W/m² 12,7 °C 26,8 °C 15,8 km/h (3 Bft)
10.08.2025 18:00 23,1 °C 25,7 °C 57 % 43 % 1025,9 hPa 0,0 l/m² 6,3 km/h (2 Bft) NW 1,00 h 73 W/m² 12,3 °C 25,6 °C 11,8 km/h (2 Bft)
10.08.2025 19:00 23,1 °C 24,6 °C 58 % 45 % 1025,9 hPa 0,0 l/m² 5,1 km/h (1 Bft) NW 0,20 h 34 W/m² 12,0 °C 24,4 °C 9,2 km/h (2 Bft)
10.08.2025 20:00 23,1 °C 22,9 °C 57 % 50 % 1026,0 hPa 0,0 l/m² 2,0 km/h (1 Bft) NW 0,00 h 12 W/m² 11,8 °C 22,9 °C 3,1 km/h (1 Bft)
10.08.2025 21:00 23,2 °C 19,5 °C 58 % 62 % 1026,4 hPa 0,0 l/m² 0,0 km/h (0 Bft) NW 0,00 h 0 W/m² 12,0 °C 19,5 °C 0,0 km/h (0 Bft)
10.08.2025 22:00 23,2 °C 16,7 °C 58 % 70 % 1026,6 hPa 0,0 l/m² 0,0 km/h (0 Bft) NW 0,00 h 0 W/m² 11,3 °C 16,7 °C 0,0 km/h (0 Bft)
10.08.2025 23:00 23,1 °C 14,8 °C 59 % 75 % 1026,8 hPa 0,0 l/m² 0,0 km/h (0 Bft) NW 0,00 h 0 W/m² 10,4 °C 14,8 °C 0,0 km/h (0 Bft)
Min-Datum _ 07.08.25 07.08.25 07.08.25 07.08.25 05.08.25 - 10.08.25 - - - 07.08.25 06.08.25 10.08.25
_ Min-Zeit 09:00 06:00 17:25 17:20 06:07 - 23:00 - - - 05:00 08:09 23:00
Minimum _ 21,5 °C 9,3 °C 49 % 31 % 1013,2 hPa - 0,0 km/h (0 Bft) - - - 7,3 °C 8,9 °C 0,0 km/h (0 Bft)
Max-Datum _ 10.08.25 09.08.25 05.08.25 07.08.25 10.08.25 05.08.25 04.08.25 - 07.08.25 06.08.25 09.08.25 09.08.25 04.08.25
_ Max-Zeit 23:00 16:00 20:01 08:40 23:44 11:01 09:35 - 12:10 14:13 10:45 16:00 09:36
Maximum _ 23,2 °C 34,2 °C 63 % 94 % 1027,0 hPa 2,2 l/m² 28,3 km/h
SW (5 Bft)
- 0,15 h 1090 W/m² 18,3 °C 34,2 °C 38,6 km/h
SW (6 Bft)
Durchschnitt _ 22,2 °C 20,3 °C 59 % 67 % 1019,2 hPa #8,8 l/m² 6,5 km/h (2 Bft) W-SW #83:13 h 208 W/m² 13,3 °C 19,8 °C 9,9 km/h (2 Bft)
© 2009 Mathias Hoßbach